Time;durP1;ratioP1;P1;durP2;ratioP2;P2;SDS_P1;SDS_P2;PMS_P1;PMS_P2;Temp;Humidity;BMP_temperature;BMP_pressure;BME280_temperature;BME280_humidity;BME280_pressure;Samples;Min_cycle;Max_cycle;Signal;HPM_P1;HPM_P2
2022/03/13 00:00:20;;;;;;;8.00;5.83;;;9.70;69.30;;;;;;5113425;27;20176;-74
2022/03/13 00:02:46;;;;;;;10.37;5.57;;;9.70;69.90;;;;;;5108285;27;20180;-73
2022/03/13 00:05:16;;;;;;;7.73;6.23;;;9.70;68.80;;;;;;5116901;27;20176;-74
2022/03/13 00:07:45;;;;;;;10.47;6.63;;;9.70;69.60;;;;;;5079114;28;20241;-75
2022/03/13 00:10:11;;;;;;;8.07;6.33;;;9.60;69.80;;;;;;5077665;28;20171;-75
2022/03/13 00:12:40;;;;;;;9.37;6.37;;;9.60;70.50;;;;;;5078603;28;20198;-70
2022/03/13 00:15:11;;;;;;;8.53;6.37;;;9.50;70.30;;;;;;5070673;28;20172;-76
2022/03/13 00:17:36;;;;;;;9.03;6.70;;;9.50;70.60;;;;;;5094570;27;20173;-75
2022/03/13 00:20:05;;;;;;;9.83;6.60;;;9.50;71.10;;;;;;5111494;28;20183;-74
2022/03/13 00:22:33;;;;;;;9.73;6.70;;;9.50;72.00;;;;;;5111931;28;20172;-75
2022/03/13 00:25:00;;;;;;;9.20;6.57;;;9.40;71.80;;;;;;5106685;28;20182;-74
2022/03/13 00:27:26;;;;;;;8.50;6.67;;;9.40;71.80;;;;;;5069248;28;20192;-74
2022/03/13 00:29:51;;;;;;;8.33;6.50;;;9.40;71.90;;;;;;5109277;28;20252;-74
2022/03/13 00:32:17;;;;;;;8.10;6.60;;;9.40;72.10;;;;;;5106512;27;20184;-74
2022/03/13 00:34:43;;;;;;;7.67;6.20;;;9.40;72.30;;;;;;5079931;28;20179;-75
2022/03/13 00:37:14;;;;;;;8.07;6.30;;;9.30;72.20;;;;;;5095927;28;20183;-74
2022/03/13 00:39:40;;;;;;;10.50;6.27;;;9.30;72.20;;;;;;5078037;28;20183;-74
2022/03/13 00:42:06;;;;;;;6.63;5.40;;;9.30;72.20;;;;;;5108328;27;20181;-74
2022/03/13 00:44:32;;;;;;;7.90;5.77;;;9.20;72.00;;;;;;5067341;28;20179;-69
2022/03/13 00:46:58;;;;;;;8.47;5.90;;;9.20;72.00;;;;;;5077355;28;20211;-74
2022/03/13 00:49:23;;;;;;;8.83;6.03;;;9.10;72.10;;;;;;5113473;27;20211;-73
2022/03/13 00:51:49;;;;;;;8.07;6.47;;;9.10;72.30;;;;;;5101355;28;20191;-75
2022/03/13 00:54:15;;;;;;;8.93;6.60;;;9.10;72.70;;;;;;5102337;28;20277;-73
2022/03/13 00:56:40;;;;;;;8.37;6.33;;;9.00;72.80;;;;;;5075330;28;20363;-75
2022/03/13 00:59:11;;;;;;;6.90;5.83;;;9.00;73.20;;;;;;5101539;28;20192;-74
2022/03/13 01:01:36;;;;;;;10.77;6.70;;;8.90;74.60;;;;;;5100090;28;20181;-74
2022/03/13 01:04:05;;;;;;;7.93;5.80;;;8.90;73.40;;;;;;5093351;28;20186;-74
2022/03/13 01:06:30;;;;;;;8.47;6.30;;;8.80;73.40;;;;;;5099292;28;20268;-71
2022/03/13 01:08:56;;;;;;;7.93;5.93;;;8.80;73.60;;;;;;5101739;28;20283;-74
2022/03/13 01:11:24;;;;;;;8.27;5.93;;;8.80;73.60;;;;;;5067286;28;20196;-73
2022/03/13 01:13:54;;;;;;;8.00;5.90;;;8.70;74.10;;;;;;5076830;28;20188;-73
2022/03/13 01:16:23;;;;;;;7.07;5.77;;;8.70;74.40;;;;;;5071900;28;20168;-72
2022/03/13 01:18:52;;;;;;;7.73;5.80;;;8.70;73.90;;;;;;5095437;28;20176;-74
2022/03/13 01:21:18;;;;;;;8.20;6.33;;;8.60;73.90;;;;;;5073973;28;20240;-73
2022/03/13 01:23:59;;;;;;;8.80;6.47;;;8.60;73.90;;;;;;5073048;28;20215;-74
2022/03/13 01:26:25;;;;;;;10.50;6.30;;;8.60;75.60;;;;;;5088936;28;20179;-71
2022/03/13 01:28:52;;;;;;;7.33;5.70;;;8.60;74.00;;;;;;5086138;28;20266;-76
2022/03/13 01:31:25;;;;;;;8.60;5.93;;;8.60;74.20;;;;;;5106269;28;20183;-76
2022/03/13 01:33:53;;;;;;;7.40;5.47;;;8.50;75.00;;;;;;5095884;28;20176;-73
2022/03/13 01:36:18;;;;;;;7.50;5.70;;;8.50;74.80;;;;;;5092362;28;20193;-76
2022/03/13 01:38:44;;;;;;;7.20;5.70;;;8.50;73.90;;;;;;5083007;28;20228;-74
2022/03/13 01:41:10;;;;;;;7.20;5.63;;;8.40;73.80;;;;;;5095119;28;20210;-77
2022/03/13 01:43:36;;;;;;;7.73;6.00;;;8.40;74.10;;;;;;5071965;28;20191;-75
2022/03/13 01:46:04;;;;;;;7.90;5.80;;;8.40;74.30;;;;;;5069316;28;20179;-75
2022/03/13 01:48:37;;;;;;;8.93;6.00;;;8.30;74.00;;;;;;5076939;28;20199;-77
2022/03/13 01:51:05;;;;;;;7.80;5.60;;;8.30;73.80;;;;;;5069609;28;20181;-74
2022/03/13 01:53:32;;;;;;;7.73;5.57;;;8.30;74.10;;;;;;5072150;28;20188;-79
2022/03/13 01:55:58;;;;;;;7.87;5.70;;;8.20;73.70;;;;;;5103532;28;20178;-74
2022/03/13 01:58:24;;;;;;;6.87;5.30;;;8.20;73.60;;;;;;5101542;28;20211;-79
2022/03/13 02:00:50;;;;;;;6.93;5.83;;;8.20;73.70;;;;;;5066262;28;20194;-77
2022/03/13 02:03:16;;;;;;;7.90;6.27;;;8.10;74.00;;;;;;5103244;28;20176;-73
2022/03/13 02:05:48;;;;;;;9.47;6.50;;;8.10;74.70;;;;;;5093440;28;20192;-77
2022/03/13 02:08:19;;;;;;;8.20;6.33;;;8.10;75.30;;;;;;5074154;28;20291;-78
2022/03/13 02:10:48;;;;;;;9.10;6.50;;;8.10;76.60;;;;;;5106097;27;20195;-79
2022/03/13 02:13:18;;;;;;;6.40;5.30;;;8.10;76.40;;;;;;5107227;28;20164;-78
2022/03/13 02:15:46;;;;;;;7.03;5.23;;;8.10;76.00;;;;;;5107812;28;20176;-75
2022/03/13 02:18:12;;;;;;;9.50;5.90;;;8.10;76.10;;;;;;5076650;28;20192;-80
2022/03/13 02:20:43;;;;;;;8.37;6.00;;;8.10;75.60;;;;;;5101175;28;20180;-79
2022/03/13 02:23:15;;;;;;;9.73;6.77;;;8.10;77.30;;;;;;5101927;28;20181;-78
2022/03/13 02:25:43;;;;;;;8.30;6.30;;;8.10;78.60;;;;;;5095117;28;20180;-79
2022/03/13 02:28:08;;;;;;;7.80;5.87;;;8.10;77.10;;;;;;5102108;28;20203;-76
2022/03/13 02:30:36;;;;;;;7.77;5.77;;;8.10;76.80;;;;;;5099251;28;20188;-79
2022/03/13 02:33:04;;;;;;;9.33;6.73;;;8.10;77.10;;;;;;5082456;28;20179;-75
2022/03/13 02:35:30;;;;;;;9.87;6.77;;;8.10;78.20;;;;;;5092524;28;20215;-78
2022/03/13 02:37:56;;;;;;;8.50;6.37;;;8.10;78.80;;;;;;5073033;28;20188;-78
2022/03/13 02:40:24;;;;;;;8.23;6.40;;;8.10;78.30;;;;;;5096392;28;20177;-80
2022/03/13 02:42:55;;;;;;;10.50;6.37;;;8.10;78.50;;;;;;5102002;28;20179;-74
2022/03/13 02:45:33;;;;;;;7.90;6.20;;;8.10;78.90;;;;;;5073217;28;20485;-77
2022/03/13 02:48:01;;;;;;;8.47;6.33;;;8.10;80.50;;;;;;5101679;28;20306;-79
2022/03/13 02:50:29;;;;;;;8.17;6.27;;;8.10;79.30;;;;;;5075183;28;20188;-79
2022/03/13 02:52:57;;;;;;;8.00;6.47;;;8.00;78.80;;;;;;5091228;28;20236;-79
2022/03/13 02:55:26;;;;;;;8.87;6.10;;;8.00;79.00;;;;;;5067264;28;20179;-78
2022/03/13 02:57:52;;;;;;;8.20;6.13;;;8.00;78.40;;;;;;5059932;28;20178;-74
2022/03/13 03:00:38;;;;;;;8.10;6.07;;;8.00;78.10;;;;;;5104607;28;20253;-79
2022/03/13 03:03:04;;;;;;;7.60;6.17;;;8.00;78.50;;;;;;5096845;28;20267;-77
2022/03/13 03:05:33;;;;;;;7.40;5.63;;;8.00;78.30;;;;;;5087729;28;20223;-79
2022/03/13 03:08:01;;;;;;;7.13;5.40;;;8.00;78.70;;;;;;5103586;28;20266;-80
2022/03/13 03:10:27;;;;;;;7.67;5.90;;;8.00;77.90;;;;;;5082413;28;20172;-79
2022/03/13 03:12:53;;;;;;;7.27;5.57;;;8.00;78.30;;;;;;5100892;28;20176;-79
2022/03/13 03:15:19;;;;;;;9.47;5.70;;;8.00;78.70;;;;;;5107345;28;20213;-80
2022/03/13 03:17:45;;;;;;;6.77;5.30;;;8.00;77.90;;;;;;5114625;27;20223;-80
2022/03/13 03:20:14;;;;;;;6.40;5.03;;;7.90;77.60;;;;;;5115882;27;20184;-79
2022/03/13 03:22:42;;;;;;;6.90;5.63;;;7.90;77.40;;;;;;5080388;28;20217;-79
2022/03/13 03:25:08;;;;;;;7.07;5.20;;;7.90;77.00;;;;;;5107800;28;20272;-76
2022/03/13 03:27:38;;;;;;;7.13;5.03;;;7.90;76.90;;;;;;5063137;28;20348;-80
2022/03/13 03:30:04;;;;;;;6.80;5.23;;;7.90;77.40;;;;;;5075095;28;20167;-79
2022/03/13 03:32:30;;;;;;;6.60;4.80;;;7.80;76.80;;;;;;5079908;28;20172;-79
2022/03/13 03:34:58;;;;;;;7.43;5.20;;;7.80;77.00;;;;;;5073204;28;20245;-75
2022/03/13 03:37:25;;;;;;;7.17;4.63;;;7.80;77.30;;;;;;5092009;28;20206;-76
2022/03/13 03:39:54;;;;;;;8.70;5.47;;;7.70;77.40;;;;;;5093309;28;20174;-72
2022/03/13 03:42:19;;;;;;;8.97;5.73;;;7.70;77.30;;;;;;5111573;27;20199;-78
2022/03/13 03:44:45;;;;;;;7.03;5.33;;;7.70;77.30;;;;;;5106633;28;20300;-79
2022/03/13 03:47:12;;;;;;;6.53;5.10;;;7.60;77.00;;;;;;5077166;28;20178;-80
2022/03/13 03:49:38;;;;;;;6.53;5.03;;;7.60;77.20;;;;;;5105729;28;20188;-73
2022/03/13 03:52:04;;;;;;;6.63;5.10;;;7.60;77.10;;;;;;5114134;28;20172;-73
2022/03/13 03:54:30;;;;;;;5.87;5.10;;;7.50;77.20;;;;;;5072924;28;20210;-74
2022/03/13 03:56:56;;;;;;;6.30;4.70;;;7.50;77.40;;;;;;5107473;28;20432;-79
2022/03/13 03:59:24;;;;;;;6.93;5.10;;;7.40;77.40;;;;;;5101054;28;20204;-77
2022/03/13 04:01:53;;;;;;;6.53;5.03;;;7.40;77.70;;;;;;5113122;28;20172;-78
2022/03/13 04:04:21;;;;;;;6.67;5.10;;;7.40;77.60;;;;;;5108012;28;20172;-78
2022/03/13 04:06:46;;;;;;;8.30;4.90;;;7.30;78.00;;;;;;5105016;28;20181;-79
2022/03/13 04:09:14;;;;;;;6.63;5.10;;;7.30;78.10;;;;;;5073342;28;20191;-74
2022/03/13 04:11:40;;;;;;;7.00;5.40;;;7.30;78.40;;;;;;5075994;28;20165;-79
2022/03/13 04:14:08;;;;;;;7.97;5.43;;;7.30;78.50;;;;;;5079740;28;20180;-69
2022/03/13 04:16:36;;;;;;;7.57;5.17;;;7.40;78.80;;;;;;5097117;28;20279;-77
2022/03/13 04:19:05;;;;;;;6.90;5.30;;;7.40;79.50;;;;;;5096336;28;20172;-78
2022/03/13 04:21:30;;;;;;;7.40;5.07;;;7.40;79.40;;;;;;5111787;28;20276;-78
2022/03/13 04:23:56;;;;;;;7.10;5.10;;;7.40;79.10;;;;;;5098866;27;20260;-78
2022/03/13 04:26:22;;;;;;;6.80;5.10;;;7.40;78.80;;;;;;5102752;27;20176;-79
2022/03/13 04:28:49;;;;;;;7.07;5.57;;;7.50;79.10;;;;;;5080530;28;20199;-77
2022/03/13 04:31:15;;;;;;;7.97;5.67;;;7.50;78.90;;;;;;5103269;28;20172;-76
2022/03/13 04:33:41;;;;;;;8.53;6.10;;;7.50;79.00;;;;;;5076040;28;20419;-74
2022/03/13 04:36:13;;;;;;;7.43;5.37;;;7.60;79.20;;;;;;5076584;28;20185;-78
2022/03/13 04:38:41;;;;;;;6.80;5.87;;;7.60;78.50;;;;;;5074161;28;20211;-78
2022/03/13 04:41:07;;;;;;;7.93;5.87;;;7.60;78.70;;;;;;5098983;27;20342;-74
2022/03/13 04:43:35;;;;;;;8.40;6.47;;;7.60;78.30;;;;;;5072083;28;20172;-78
2022/03/13 04:46:01;;;;;;;6.70;5.40;;;7.70;78.70;;;;;;5102619;28;20434;-77
2022/03/13 04:48:29;;;;;;;8.37;6.03;;;7.70;78.20;;;;;;5109294;28;20228;-79
2022/03/13 04:50:57;;;;;;;8.43;6.40;;;7.70;78.00;;;;;;5061438;28;20181;-79
2022/03/13 04:53:22;;;;;;;9.10;6.47;;;7.70;78.60;;;;;;5073590;28;20199;-75
2022/03/13 04:55:50;;;;;;;10.80;6.57;;;7.80;78.80;;;;;;5106115;28;20204;-74
2022/03/13 04:58:18;;;;;;;7.90;6.20;;;7.80;77.90;;;;;;5077525;28;20276;-79
2022/03/13 05:00:48;;;;;;;7.40;5.70;;;7.80;77.50;;;;;;5071598;28;20191;-79
2022/03/13 05:03:16;;;;;;;7.77;5.40;;;7.80;77.10;;;;;;5078141;28;20207;-78
2022/03/13 05:05:45;;;;;;;7.60;5.27;;;7.90;76.90;;;;;;5110786;28;20216;-74
2022/03/13 05:08:15;;;;;;;7.43;5.53;;;7.90;76.70;;;;;;5111602;28;20207;-75
2022/03/13 05:10:46;;;;;;;8.80;5.20;;;8.00;76.50;;;;;;5077155;28;20227;-78
2022/03/13 05:13:19;;;;;;;7.73;5.67;;;8.00;76.40;;;;;;5071591;28;20188;-79
2022/03/13 05:15:46;;;;;;;7.20;5.37;;;8.10;76.40;;;;;;5110523;27;20180;-77
2022/03/13 05:18:12;;;;;;;7.47;5.43;;;8.10;76.10;;;;;;5106856;28;20244;-76
2022/03/13 05:20:39;;;;;;;7.63;5.70;;;8.10;75.80;;;;;;5109332;28;20187;-79
2022/03/13 05:23:07;;;;;;;7.63;5.80;;;8.20;75.80;;;;;;5097861;28;20448;-79
2022/03/13 05:25:34;;;;;;;7.60;5.87;;;8.20;75.70;;;;;;5068874;28;20195;-78
2022/03/13 05:28:05;;;;;;;6.87;5.53;;;8.20;75.20;;;;;;5066320;28;20192;-78
2022/03/13 05:30:31;;;;;;;6.63;5.33;;;8.30;74.90;;;;;;5105291;28;20199;-79
2022/03/13 05:32:59;;;;;;;7.73;5.67;;;8.30;74.50;;;;;;5072500;28;20207;-79
2022/03/13 05:35:25;;;;;;;7.43;5.30;;;8.30;74.70;;;;;;5072746;28;20192;-72
2022/03/13 05:37:51;;;;;;;6.90;5.00;;;8.30;73.80;;;;;;5102979;28;20180;-75
2022/03/13 05:40:19;;;;;;;6.87;5.70;;;8.30;73.70;;;;;;5103205;28;20203;-76
2022/03/13 05:42:50;;;;;;;7.43;5.53;;;8.30;73.50;;;;;;5096938;28;20188;-78
2022/03/13 05:45:19;;;;;;;8.60;5.43;;;8.30;73.30;;;;;;5072334;28;20180;-79
2022/03/13 05:47:59;;;;;;;7.17;5.63;;;8.30;73.20;;;;;;5111368;28;20256;-79
2022/03/13 05:50:27;;;;;;;6.87;5.67;;;8.40;73.10;;;;;;5105791;28;20308;-78
2022/03/13 05:52:55;;;;;;;7.63;5.53;;;8.40;73.10;;;;;;5100949;28;20169;-78
2022/03/13 05:55:28;;;;;;;7.40;5.37;;;8.40;72.80;;;;;;5074403;28;20183;-78
2022/03/13 05:57:58;;;;;;;8.33;5.20;;;8.40;72.60;;;;;;5077445;28;20176;-77
2022/03/13 06:00:32;;;;;;;7.27;5.27;;;8.40;72.40;;;;;;5103971;28;20274;-79
2022/03/13 06:02:59;;;;;;;8.37;5.00;;;8.40;73.00;;;;;;5110247;27;20185;-79
2022/03/13 06:05:27;;;;;;;7.07;5.27;;;8.40;72.30;;;;;;5099779;28;20168;-79
2022/03/13 06:07:53;;;;;;;7.70;5.63;;;8.50;72.30;;;;;;5104325;28;20231;-73
2022/03/13 06:10:22;;;;;;;7.03;5.63;;;8.40;71.80;;;;;;5102156;28;20197;-73
2022/03/13 06:12:47;;;;;;;9.03;6.93;;;8.50;71.60;;;;;;5104590;28;20211;-78
2022/03/13 06:15:17;;;;;;;7.37;5.67;;;8.50;69.60;;;;;;5086465;28;20176;-78
2022/03/13 06:17:44;;;;;;;7.57;5.70;;;8.50;69.90;;;;;;5077691;28;20211;-74
2022/03/13 06:20:13;;;;;;;7.80;5.30;;;8.50;69.60;;;;;;5095599;28;20187;-78
2022/03/13 06:22:41;;;;;;;6.63;4.90;;;8.60;69.40;;;;;;5109499;27;20199;-73
2022/03/13 06:25:08;;;;;;;6.27;5.10;;;8.60;68.30;;;;;;5106739;28;20172;-79
2022/03/13 06:27:36;;;;;;;6.63;4.90;;;8.70;68.10;;;;;;5076948;28;20186;-77
2022/03/13 06:30:14;;;;;;;7.10;4.77;;;8.80;67.80;;;;;;5075681;28;20279;-78
2022/03/13 06:32:43;;;;;;;5.73;4.57;;;8.80;65.20;;;;;;5086372;28;20194;-77
2022/03/13 06:35:12;;;;;;;6.13;4.57;;;8.90;66.20;;;;;;5107017;27;20180;-79
2022/03/13 06:37:39;;;;;;;8.60;5.50;;;9.00;65.60;;;;;;5109328;28;20203;-78
2022/03/13 06:40:14;;;;;;;5.73;4.60;;;9.10;63.70;;;;;;5099924;28;20175;-74
2022/03/13 06:42:43;;;;;;;5.67;4.37;;;9.10;62.70;;;;;;5104146;28;20168;-76
2022/03/13 06:45:11;;;;;;;8.60;5.77;;;9.20;62.00;;;;;;5109494;28;20192;-75
2022/03/13 06:47:44;;;;;;;7.60;5.50;;;9.20;61.30;;;;;;5096719;28;20211;-79
2022/03/13 06:50:18;;;;;;;7.13;5.27;;;9.30;60.80;;;;;;5099003;28;20268;-80
2022/03/13 06:52:48;;;;;;;7.10;5.30;;;9.30;60.50;;;;;;5059631;28;20163;-79
2022/03/13 06:55:17;;;;;;;7.77;5.10;;;9.40;60.90;;;;;;5093927;28;20164;-77
2022/03/13 06:57:43;;;;;;;8.30;5.40;;;9.40;61.10;;;;;;5106893;28;20194;-78
2022/03/13 07:00:10;;;;;;;8.73;5.67;;;9.40;61.40;;;;;;5103381;28;20180;-79
2022/03/13 07:02:36;;;;;;;6.27;5.27;;;9.40;60.20;;;;;;5079690;28;20196;-78
2022/03/13 07:05:02;;;;;;;8.40;6.00;;;9.50;59.40;;;;;;5100216;28;20237;-75
2022/03/13 07:07:30;;;;;;;9.23;6.67;;;9.50;59.60;;;;;;5118495;28;20214;-80
2022/03/13 07:10:01;;;;;;;6.80;5.43;;;9.50;59.00;;;;;;5073710;28;20212;-74
2022/03/13 07:12:29;;;;;;;8.43;5.80;;;9.50;59.40;;;;;;5109484;28;20168;-80
2022/03/13 07:14:57;;;;;;;7.37;5.37;;;9.50;59.40;;;;;;5070109;28;20169;-81
2022/03/13 07:17:25;;;;;;;7.83;6.20;;;9.50;59.10;;;;;;5079672;28;20209;-80
2022/03/13 07:19:51;;;;;;;6.93;5.50;;;9.60;58.60;;;;;;5095685;28;20171;-77
2022/03/13 07:22:16;;;;;;;8.47;5.73;;;9.60;59.10;;;;;;5126852;28;20174;-79
2022/03/13 07:24:46;;;;;;;7.60;5.57;;;9.60;58.90;;;;;;5111258;28;20164;-76
2022/03/13 07:27:12;;;;;;;7.60;5.60;;;9.60;59.00;;;;;;5097380;28;20503;-74
2022/03/13 07:29:38;;;;;;;7.53;5.63;;;9.60;59.00;;;;;;5094428;28;20293;-79
2022/03/13 07:32:06;;;;;;;8.30;6.30;;;9.60;58.90;;;;;;5078877;28;20184;-79
2022/03/13 07:34:32;;;;;;;6.93;5.30;;;9.60;59.10;;;;;;5084678;28;20217;-74
2022/03/13 07:37:00;;;;;;;9.03;6.57;;;9.70;59.60;;;;;;5092147;28;20273;-79
2022/03/13 07:39:28;;;;;;;8.23;6.17;;;9.70;59.90;;;;;;5097259;28;20179;-79
2022/03/13 07:41:54;;;;;;;9.17;6.40;;;9.70;59.90;;;;;;5095547;28;20195;-74
2022/03/13 07:44:21;;;;;;;7.90;6.27;;;9.70;60.20;;;;;;5057099;28;20173;-78
2022/03/13 07:46:47;;;;;;;8.57;6.17;;;9.70;60.80;;;;;;5056691;28;20187;-79
2022/03/13 07:49:15;;;;;;;7.20;5.87;;;9.80;60.10;;;;;;5108604;28;20184;-79
2022/03/13 07:51:41;;;;;;;9.03;6.03;;;9.80;60.30;;;;;;5127845;28;20160;-79
2022/03/13 07:54:06;;;;;;;8.50;6.43;;;9.80;60.20;;;;;;5128444;27;20170;-79
2022/03/13 07:56:32;;;;;;;7.90;5.93;;;9.80;60.10;;;;;;5100891;28;20189;-74
2022/03/13 07:58:57;;;;;;;7.60;5.90;;;9.80;60.20;;;;;;5084596;28;20192;-78
2022/03/13 08:01:28;;;;;;;9.57;7.00;;;9.80;60.20;;;;;;5081091;28;20172;-78
2022/03/13 08:03:53;;;;;;;7.40;6.10;;;9.80;59.60;;;;;;5097522;28;20172;-78
2022/03/13 08:06:19;;;;;;;9.80;6.83;;;9.80;60.00;;;;;;5110773;28;20207;-79
2022/03/13 08:08:47;;;;;;;8.73;6.23;;;9.90;59.20;;;;;;5114197;28;20435;-80
2022/03/13 08:11:16;;;;;;;9.17;6.57;;;9.90;58.90;;;;;;5114224;28;20156;-75
2022/03/13 08:13:43;;;;;;;8.67;6.37;;;9.90;58.80;;;;;;5097292;28;20292;-80
2022/03/13 08:16:12;;;;;;;7.27;5.67;;;10.00;58.40;;;;;;5093256;28;20365;-79
2022/03/13 08:18:40;;;;;;;8.53;6.57;;;10.00;58.30;;;;;;5065423;28;20252;-75
2022/03/13 08:21:10;;;;;;;7.67;5.83;;;10.00;58.20;;;;;;5108156;28;20349;-78
2022/03/13 08:23:35;;;;;;;6.97;5.30;;;10.10;58.00;;;;;;5113733;28;20437;-77
2022/03/13 08:26:01;;;;;;;7.23;5.53;;;10.10;57.70;;;;;;5108426;27;20250;-80
2022/03/13 08:28:29;;;;;;;7.17;5.73;;;10.20;57.90;;;;;;5117290;27;20195;-76
2022/03/13 08:30:55;;;;;;;7.00;5.17;;;10.20;56.80;;;;;;5115481;27;20271;-77
2022/03/13 08:33:21;;;;;;;9.63;5.57;;;10.20;56.00;;;;;;5113709;28;20483;-77
2022/03/13 08:35:47;;;;;;;7.00;5.70;;;10.30;56.40;;;;;;5091957;28;20184;-80
2022/03/13 08:38:12;;;;;;;7.20;5.80;;;10.40;55.30;;;;;;5094841;28;20222;-78
2022/03/13 08:40:40;;;;;;;8.70;5.57;;;10.40;55.40;;;;;;5104235;28;20179;-79
2022/03/13 08:43:08;;;;;;;7.87;5.90;;;10.50;54.80;;;;;;5100255;28;20168;-76
2022/03/13 08:45:34;;;;;;;8.30;6.50;;;10.60;54.20;;;;;;5064397;28;20200;-74
2022/03/13 08:48:02;;;;;;;7.17;5.53;;;10.60;53.70;;;;;;5077396;28;20261;-78
2022/03/13 08:50:32;;;;;;;7.87;5.90;;;10.80;54.50;;;;;;5109136;27;20206;-74
2022/03/13 08:52:58;;;;;;;7.80;5.67;;;10.80;53.80;;;;;;5092499;28;20192;-75
2022/03/13 08:55:24;;;;;;;8.17;5.50;;;11.00;53.70;;;;;;5080800;28;20176;-79
2022/03/13 08:57:52;;;;;;;7.27;5.40;;;11.10;53.70;;;;;;5122003;27;20209;-76
2022/03/13 09:00:19;;;;;;;6.30;5.20;;;11.20;53.30;;;;;;5090798;28;20178;-78
2022/03/13 09:02:50;;;;;;;9.45;6.15;;;11.30;53.70;;;;;;5100055;28;20501;-79
2022/03/13 09:05:20;;;;;;;7.55;6.10;;;11.50;53.30;;;;;;5098014;28;20254;-77
2022/03/13 09:07:46;;;;;;;10.13;6.05;;;11.60;52.90;;;;;;5063631;28;20196;-75
2022/03/13 09:10:15;;;;;;;8.90;6.13;;;11.70;53.10;;;;;;5117116;27;20299;-78
2022/03/13 09:12:40;;;;;;;9.85;6.30;;;11.90;52.50;;;;;;5091009;28;20241;-76
2022/03/13 09:15:07;;;;;;;7.57;5.60;;;12.00;52.50;;;;;;5079115;28;20172;-79
2022/03/13 09:17:34;;;;;;;6.55;5.55;;;12.10;52.20;;;;;;5076092;28;20274;-79
2022/03/13 09:20:03;;;;;;;9.68;6.25;;;12.10;52.30;;;;;;5071667;28;20174;-80
2022/03/13 09:22:30;;;;;;;8.57;5.95;;;12.20;51.80;;;;;;5083179;28;20202;-68
2022/03/13 09:25:00;;;;;;;9.02;6.15;;;12.30;51.70;;;;;;5082321;28;20375;-78
2022/03/13 09:27:26;;;;;;;7.55;6.30;;;12.40;50.50;;;;;;5112748;28;20486;-80
2022/03/13 09:29:54;;;;;;;8.43;6.07;;;12.40;50.70;;;;;;5086341;28;20195;-72
2022/03/13 09:32:26;;;;;;;9.05;6.75;;;12.50;49.90;;;;;;5076492;28;20188;-73
2022/03/13 09:34:56;;;;;;;9.82;7.30;;;12.50;49.80;;;;;;5105306;28;20191;-72
2022/03/13 09:37:23;;;;;;;8.02;6.60;;;12.60;48.90;;;;;;5100657;28;20184;-73
2022/03/13 09:39:50;;;;;;;7.57;5.95;;;12.70;49.80;;;;;;5110716;28;20176;-73
2022/03/13 09:42:16;;;;;;;9.40;6.82;;;12.80;50.60;;;;;;5099080;28;20200;-74
2022/03/13 09:44:44;;;;;;;10.00;7.00;;;12.90;49.90;;;;;;5098531;28;20177;-73
2022/03/13 09:47:11;;;;;;;9.93;7.63;;;13.20;50.00;;;;;;5068014;28;20263;-74
2022/03/13 09:49:42;;;;;;;8.05;6.32;;;13.70;50.00;;;;;;5074758;28;20208;-72
2022/03/13 09:52:11;;;;;;;8.10;6.47;;;14.40;49.80;;;;;;5099102;28;20187;-73
2022/03/13 09:54:37;;;;;;;11.32;7.78;;;15.00;49.90;;;;;;5077076;28;20196;-74
2022/03/13 09:57:04;;;;;;;10.52;7.82;;;15.60;47.60;;;;;;5098353;28;20215;-73
2022/03/13 09:59:31;;;;;;;11.65;8.02;;;16.10;46.70;;;;;;5104266;28;20190;-74
2022/03/13 10:01:59;;;;;;;11.27;8.32;;;16.40;46.10;;;;;;5105863;28;20176;-74
2022/03/13 10:04:29;;;;;;;11.00;8.40;;;16.70;45.40;;;;;;5095120;28;20169;-72
2022/03/13 10:07:10;;;;;;;10.25;7.78;;;16.90;45.50;;;;;;5109228;27;20191;-73
2022/03/13 10:09:37;;;;;;;9.77;7.35;;;17.20;44.80;;;;;;5086237;28;20248;-75
2022/03/13 10:12:12;;;;;;;8.77;7.32;;;17.50;45.70;;;;;;5095524;28;20172;-74
2022/03/13 10:14:57;;;;;;;9.18;7.38;;;17.70;46.00;;;;;;5103353;28;20197;-75
2022/03/13 10:17:35;;;;;;;11.65;8.95;;;18.00;45.50;;;;;;5094954;28;20182;-75
2022/03/13 10:20:30;;;;;;;12.95;9.52;;;18.20;42.00;;;;;;5083055;28;20180;-73
2022/03/13 10:22:59;;;;;;;10.73;8.48;;;18.40;39.40;;;;;;5056013;28;20270;-74
2022/03/13 10:25:33;;;;;;;10.10;7.93;;;18.50;42.70;;;;;;5090115;28;20214;-74
2022/03/13 10:28:25;;;;;;;10.02;8.18;;;18.60;41.00;;;;;;5103487;27;20203;-74
2022/03/13 10:31:00;;;;;;;20.65;8.85;;;18.70;41.70;;;;;;5087365;28;20219;-74
2022/03/13 10:33:27;;;;;;;9.48;8.05;;;18.60;42.10;;;;;;5098053;28;20258;-75
2022/03/13 10:36:17;;;;;;;12.90;9.23;;;18.60;42.60;;;;;;5094641;28;20188;-70
2022/03/13 10:38:44;;;;;;;12.30;9.35;;;18.70;40.60;;;;;;5064647;28;20222;-74
2022/03/13 10:41:13;;;;;;;9.38;7.78;;;18.80;42.60;;;;;;5077463;28;20267;-74
2022/03/13 10:43:54;;;;;;;11.18;7.88;;;18.90;43.20;;;;;;5082159;28;20187;-73
2022/03/13 10:46:28;;;;;;;10.38;7.97;;;19.10;43.60;;;;;;5088544;28;20191;-73
2022/03/13 10:48:57;;;;;;;10.05;7.60;;;19.10;42.90;;;;;;5106849;28;20211;-72
2022/03/13 10:51:45;;;;;;;10.15;8.48;;;19.20;43.90;;;;;;5080677;28;20237;-75
2022/03/13 10:54:37;;;;;;;11.55;9.20;;;19.30;42.60;;;;;;5076364;28;20274;-75
2022/03/13 10:57:11;;;;;;;10.63;8.93;;;19.30;41.70;;;;;;5073814;28;20176;-73
2022/03/13 10:59:42;;;;;;;12.13;8.88;;;19.30;42.40;;;;;;5103249;28;20214;-75
2022/03/13 11:02:14;;;;;;;10.63;8.68;;;19.40;42.40;;;;;;5100299;28;20226;-75
2022/03/13 11:04:51;;;;;;;11.45;8.93;;;19.40;42.80;;;;;;5089160;28;20164;-75
2022/03/13 11:07:21;;;;;;;11.73;8.70;;;19.50;41.60;;;;;;5103681;28;20184;-75
2022/03/13 11:09:50;;;;;;;10.15;7.85;;;19.50;43.30;;;;;;5073727;28;20208;-75
2022/03/13 11:12:20;;;;;;;12.00;9.00;;;19.40;43.30;;;;;;5101282;28;20176;-72
2022/03/13 11:14:50;;;;;;;9.80;7.90;;;19.40;42.70;;;;;;5105433;28;20176;-74
2022/03/13 11:17:19;;;;;;;8.43;7.07;;;19.40;43.70;;;;;;5062247;28;20176;-75
2022/03/13 11:19:51;;;;;;;8.05;7.13;;;19.40;44.20;;;;;;5068638;28;20256;-75
2022/03/13 11:22:20;;;;;;;9.88;8.20;;;19.50;44.10;;;;;;5098294;28;20309;-75
2022/03/13 11:24:47;;;;;;;9.98;7.68;;;19.40;44.20;;;;;;5099146;28;20244;-76
2022/03/13 11:27:16;;;;;;;7.80;6.97;;;19.30;43.90;;;;;;5102187;28;20200;-75
2022/03/13 11:29:57;;;;;;;8.35;6.80;;;19.30;44.30;;;;;;5069958;28;20291;-75
2022/03/13 11:32:35;;;;;;;8.38;6.68;;;19.30;44.50;;;;;;5110293;28;20172;-75
2022/03/13 11:35:18;;;;;;;8.07;6.93;;;19.40;45.00;;;;;;5110355;27;20263;-74
2022/03/13 11:37:51;;;;;;;8.23;6.90;;;19.60;44.60;;;;;;5086884;28;20188;-72
2022/03/13 11:40:34;;;;;;;8.48;6.85;;;19.70;44.80;;;;;;5106635;28;20260;-75
2022/03/13 11:43:12;;;;;;;8.93;7.13;;;19.90;45.10;;;;;;5099161;28;20175;-76
2022/03/13 11:45:47;;;;;;;8.93;6.82;;;20.00;45.10;;;;;;5095396;28;20160;-73
2022/03/13 11:48:19;;;;;;;9.07;6.50;;;20.20;45.80;;;;;;5071543;28;20192;-76
2022/03/13 11:50:55;;;;;;;11.85;8.70;;;20.40;45.80;;;;;;5089472;28;20184;-75
2022/03/13 11:53:24;;;;;;;8.63;7.55;;;20.50;44.10;;;;;;5111345;27;20175;-72
2022/03/13 11:56:02;;;;;;;8.80;7.45;;;20.50;44.70;;;;;;5078253;28;20183;-75
2022/03/13 11:58:42;;;;;;;8.85;7.45;;;20.50;43.60;;;;;;5077215;28;20388;-75
2022/03/13 12:01:15;;;;;;;7.55;6.75;;;20.40;44.10;;;;;;5077532;28;20175;-75
2022/03/13 12:04:00;;;;;;;8.43;7.13;;;20.30;44.90;;;;;;5106998;28;20232;-74
2022/03/13 12:06:46;;;;;;;7.70;6.45;;;20.20;44.60;;;;;;5077373;28;20164;-72
2022/03/13 12:09:15;;;;;;;8.57;7.10;;;20.10;44.40;;;;;;5081768;28;20196;-73
2022/03/13 12:11:42;;;;;;;10.48;7.30;;;20.10;44.80;;;;;;5116668;27;20176;-72
2022/03/13 12:14:15;;;;;;;9.70;7.40;;;20.10;45.00;;;;;;5096520;28;20192;-72
2022/03/13 12:16:47;;;;;;;8.00;6.70;;;20.10;44.50;;;;;;5068812;28;20173;-71
2022/03/13 12:19:17;;;;;;;8.77;6.93;;;20.10;45.30;;;;;;5078248;28;20190;-76
2022/03/13 12:21:46;;;;;;;7.25;6.50;;;20.20;45.00;;;;;;5110015;27;20249;-74
2022/03/13 12:24:16;;;;;;;8.15;6.63;;;20.40;45.40;;;;;;5109026;28;20173;-72
2022/03/13 12:26:47;;;;;;;8.60;6.80;;;20.40;45.10;;;;;;5079196;28;20419;-72
2022/03/13 12:29:15;;;;;;;9.07;7.03;;;20.40;44.70;;;;;;5079426;28;20188;-71
2022/03/13 12:31:42;;;;;;;7.82;7.03;;;20.50;45.00;;;;;;5110439;28;20172;-71
2022/03/13 12:34:12;;;;;;;10.98;7.63;;;20.50;44.30;;;;;;5082002;28;20172;-72
2022/03/13 12:36:45;;;;;;;8.00;6.72;;;20.50;44.50;;;;;;5112483;27;20192;-75
2022/03/13 12:39:14;;;;;;;7.82;6.40;;;20.60;44.90;;;;;;5092458;28;20212;-74
2022/03/13 12:41:44;;;;;;;9.70;6.82;;;20.70;45.20;;;;;;5089507;28;20197;-76
2022/03/13 12:44:15;;;;;;;7.53;6.07;;;20.80;45.00;;;;;;5109821;27;20266;-74
2022/03/13 12:46:41;;;;;;;7.50;6.28;;;20.90;45.00;;;;;;5126196;27;20200;-76
2022/03/13 12:49:12;;;;;;;7.07;6.00;;;21.00;45.20;;;;;;5106429;27;20219;-77
2022/03/13 12:51:46;;;;;;;7.72;6.03;;;21.00;44.90;;;;;;5124363;27;20172;-78
2022/03/13 12:54:29;;;;;;;8.05;7.00;;;21.10;44.70;;;;;;5107198;28;20168;-78
2022/03/13 12:57:05;;;;;;;7.60;6.05;;;21.00;43.60;;;;;;5079015;28;20200;-77
2022/03/13 12:59:33;;;;;;;6.30;5.35;;;20.90;43.90;;;;;;5068824;28;20194;-72
2022/03/13 13:02:09;;;;;;;8.07;6.35;;;20.70;43.70;;;;;;5098824;28;20187;-77